sensor_id;sensor_type;location;lat;lon;timestamp;P1;durP1;ratioP1;P2;durP2;ratioP2
31652;SDS011;18261;53.648;9.910;2023-03-23T00:00:49;17.30;;;8.93;;
31652;SDS011;18261;53.648;9.910;2023-03-23T00:03:15;24.67;;;10.30;;
31652;SDS011;18261;53.648;9.910;2023-03-23T00:05:42;18.02;;;9.27;;
31652;SDS011;18261;53.648;9.910;2023-03-23T00:08:18;21.23;;;10.52;;
31652;SDS011;18261;53.648;9.910;2023-03-23T00:10:50;17.70;;;10.52;;
31652;SDS011;18261;53.648;9.910;2023-03-23T00:13:23;19.52;;;11.25;;
31652;SDS011;18261;53.648;9.910;2023-03-23T00:15:49;23.02;;;11.50;;
31652;SDS011;18261;53.648;9.910;2023-03-23T00:18:17;22.70;;;12.90;;
31652;SDS011;18261;53.648;9.910;2023-03-23T00:20:46;25.35;;;14.18;;
31652;SDS011;18261;53.648;9.910;2023-03-23T00:23:14;21.70;;;13.63;;
31652;SDS011;18261;53.648;9.910;2023-03-23T00:25:44;22.40;;;14.32;;
31652;SDS011;18261;53.648;9.910;2023-03-23T00:28:10;23.00;;;14.55;;
31652;SDS011;18261;53.648;9.910;2023-03-23T00:30:38;24.20;;;14.75;;
31652;SDS011;18261;53.648;9.910;2023-03-23T00:33:04;26.27;;;15.10;;
31652;SDS011;18261;53.648;9.910;2023-03-23T00:35:30;28.02;;;16.20;;
31652;SDS011;18261;53.648;9.910;2023-03-23T00:37:56;22.40;;;15.00;;
31652;SDS011;18261;53.648;9.910;2023-03-23T00:40:23;21.80;;;15.52;;
31652;SDS011;18261;53.648;9.910;2023-03-23T00:42:51;27.70;;;16.67;;
31652;SDS011;18261;53.648;9.910;2023-03-23T00:45:17;25.52;;;16.77;;
31652;SDS011;18261;53.648;9.910;2023-03-23T00:47:43;28.75;;;17.17;;
31652;SDS011;18261;53.648;9.910;2023-03-23T00:50:11;27.83;;;17.02;;
31652;SDS011;18261;53.648;9.910;2023-03-23T00:52:38;23.70;;;18.17;;
31652;SDS011;18261;53.648;9.910;2023-03-23T00:55:04;30.95;;;17.88;;
31652;SDS011;18261;53.648;9.910;2023-03-23T00:57:31;23.38;;;17.60;;
31652;SDS011;18261;53.648;9.910;2023-03-23T00:59:57;26.27;;;18.33;;
31652;SDS011;18261;53.648;9.910;2023-03-23T01:02:23;24.98;;;18.33;;
31652;SDS011;18261;53.648;9.910;2023-03-23T01:04:52;26.88;;;17.63;;
31652;SDS011;18261;53.648;9.910;2023-03-23T01:07:19;28.70;;;17.95;;
31652;SDS011;18261;53.648;9.910;2023-03-23T01:09:45;28.45;;;17.15;;
31652;SDS011;18261;53.648;9.910;2023-03-23T01:12:12;22.00;;;17.80;;
31652;SDS011;18261;53.648;9.910;2023-03-23T01:14:38;25.65;;;18.15;;
31652;SDS011;18261;53.648;9.910;2023-03-23T01:17:04;21.75;;;17.77;;
31652;SDS011;18261;53.648;9.910;2023-03-23T01:19:30;22.77;;;17.63;;
31652;SDS011;18261;53.648;9.910;2023-03-23T01:21:56;28.10;;;18.45;;
31652;SDS011;18261;53.648;9.910;2023-03-23T01:24:22;24.23;;;17.65;;
31652;SDS011;18261;53.648;9.910;2023-03-23T01:26:48;26.23;;;17.25;;
31652;SDS011;18261;53.648;9.910;2023-03-23T01:29:14;27.00;;;18.25;;
31652;SDS011;18261;53.648;9.910;2023-03-23T01:31:40;24.20;;;18.55;;
31652;SDS011;18261;53.648;9.910;2023-03-23T01:34:07;25.75;;;19.25;;
31652;SDS011;18261;53.648;9.910;2023-03-23T01:36:35;25.17;;;19.60;;
31652;SDS011;18261;53.648;9.910;2023-03-23T01:39:01;28.20;;;20.17;;
31652;SDS011;18261;53.648;9.910;2023-03-23T01:41:28;26.40;;;19.48;;
31652;SDS011;18261;53.648;9.910;2023-03-23T01:43:59;32.45;;;20.13;;
31652;SDS011;18261;53.648;9.910;2023-03-23T01:46:27;28.65;;;19.70;;
31652;SDS011;18261;53.648;9.910;2023-03-23T01:48:53;28.58;;;20.40;;
31652;SDS011;18261;53.648;9.910;2023-03-23T01:51:19;33.30;;;20.27;;
31652;SDS011;18261;53.648;9.910;2023-03-23T01:53:48;28.80;;;20.85;;
31652;SDS011;18261;53.648;9.910;2023-03-23T01:56:16;28.88;;;21.17;;
31652;SDS011;18261;53.648;9.910;2023-03-23T01:58:45;38.70;;;22.23;;
31652;SDS011;18261;53.648;9.910;2023-03-23T02:01:12;34.38;;;22.05;;
31652;SDS011;18261;53.648;9.910;2023-03-23T02:03:39;33.08;;;21.55;;
31652;SDS011;18261;53.648;9.910;2023-03-23T02:06:07;34.65;;;23.02;;
31652;SDS011;18261;53.648;9.910;2023-03-23T02:08:33;35.20;;;23.60;;
31652;SDS011;18261;53.648;9.910;2023-03-23T02:10:59;33.72;;;22.52;;
31652;SDS011;18261;53.648;9.910;2023-03-23T02:13:26;32.45;;;23.42;;
31652;SDS011;18261;53.648;9.910;2023-03-23T02:19:03;31.10;;;23.27;;
31652;SDS011;18261;53.648;9.910;2023-03-23T02:21:14;32.55;;;23.48;;
31652;SDS011;18261;53.648;9.910;2023-03-23T02:29:02;30.13;;;20.60;;
31652;SDS011;18261;53.648;9.910;2023-03-23T02:35:07;27.92;;;20.65;;
31652;SDS011;18261;53.648;9.910;2023-03-23T02:37:17;29.92;;;19.95;;
31652;SDS011;18261;53.648;9.910;2023-03-23T02:39:50;31.20;;;19.77;;
31652;SDS011;18261;53.648;9.910;2023-03-23T02:42:20;29.60;;;21.48;;
31652;SDS011;18261;53.648;9.910;2023-03-23T02:44:47;26.75;;;19.55;;
31652;SDS011;18261;53.648;9.910;2023-03-23T02:47:16;34.58;;;19.63;;
31652;SDS011;18261;53.648;9.910;2023-03-23T02:49:43;26.08;;;19.65;;
31652;SDS011;18261;53.648;9.910;2023-03-23T02:52:11;27.70;;;19.50;;
31652;SDS011;18261;53.648;9.910;2023-03-23T02:54:41;27.08;;;18.70;;
31652;SDS011;18261;53.648;9.910;2023-03-23T02:57:08;25.20;;;18.63;;
31652;SDS011;18261;53.648;9.910;2023-03-23T02:59:34;26.85;;;19.35;;
31652;SDS011;18261;53.648;9.910;2023-03-23T03:02:07;32.38;;;18.77;;
31652;SDS011;18261;53.648;9.910;2023-03-23T03:04:35;25.13;;;18.60;;
31652;SDS011;18261;53.648;9.910;2023-03-23T03:07:15;29.80;;;19.00;;
31652;SDS011;18261;53.648;9.910;2023-03-23T03:09:50;26.58;;;17.45;;
31652;SDS011;18261;53.648;9.910;2023-03-23T03:15:09;30.40;;;17.05;;
31652;SDS011;18261;53.648;9.910;2023-03-23T03:17:38;31.58;;;18.02;;
31652;SDS011;18261;53.648;9.910;2023-03-23T03:20:08;23.17;;;16.42;;
31652;SDS011;18261;53.648;9.910;2023-03-23T03:22:36;23.60;;;16.52;;
31652;SDS011;18261;53.648;9.910;2023-03-23T03:25:04;25.70;;;17.75;;
31652;SDS011;18261;53.648;9.910;2023-03-23T03:27:31;27.52;;;16.85;;
31652;SDS011;18261;53.648;9.910;2023-03-23T03:29:58;22.80;;;16.42;;
31652;SDS011;18261;53.648;9.910;2023-03-23T03:32:30;23.73;;;15.90;;
31652;SDS011;18261;53.648;9.910;2023-03-23T03:35:00;23.98;;;15.35;;
31652;SDS011;18261;53.648;9.910;2023-03-23T03:37:32;22.75;;;15.95;;
31652;SDS011;18261;53.648;9.910;2023-03-23T03:39:59;25.70;;;16.55;;
31652;SDS011;18261;53.648;9.910;2023-03-23T03:42:25;22.38;;;16.55;;
31652;SDS011;18261;53.648;9.910;2023-03-23T03:44:51;21.23;;;16.67;;
31652;SDS011;18261;53.648;9.910;2023-03-23T03:47:17;22.50;;;16.65;;
31652;SDS011;18261;53.648;9.910;2023-03-23T03:49:43;24.60;;;16.90;;
31652;SDS011;18261;53.648;9.910;2023-03-23T03:52:09;30.05;;;17.35;;
31652;SDS011;18261;53.648;9.910;2023-03-23T03:54:35;26.92;;;16.95;;
31652;SDS011;18261;53.648;9.910;2023-03-23T03:57:01;26.95;;;16.55;;
31652;SDS011;18261;53.648;9.910;2023-03-23T03:59:27;23.23;;;16.17;;
31652;SDS011;18261;53.648;9.910;2023-03-23T04:01:55;24.73;;;15.13;;
31652;SDS011;18261;53.648;9.910;2023-03-23T04:04:21;26.05;;;15.85;;
31652;SDS011;18261;53.648;9.910;2023-03-23T04:06:47;22.45;;;15.45;;
31652;SDS011;18261;53.648;9.910;2023-03-23T04:09:14;23.35;;;14.43;;
31652;SDS011;18261;53.648;9.910;2023-03-23T04:11:40;20.60;;;13.82;;
31652;SDS011;18261;53.648;9.910;2023-03-23T04:14:06;19.35;;;13.80;;
31652;SDS011;18261;53.648;9.910;2023-03-23T04:16:32;24.70;;;13.20;;
31652;SDS011;18261;53.648;9.910;2023-03-23T04:18:59;16.88;;;13.55;;
31652;SDS011;18261;53.648;9.910;2023-03-23T04:21:25;22.48;;;14.13;;
31652;SDS011;18261;53.648;9.910;2023-03-23T04:23:55;23.83;;;14.20;;
31652;SDS011;18261;53.648;9.910;2023-03-23T04:26:24;20.70;;;13.93;;
31652;SDS011;18261;53.648;9.910;2023-03-23T04:28:50;33.45;;;16.05;;
31652;SDS011;18261;53.648;9.910;2023-03-23T04:31:17;28.80;;;14.90;;
31652;SDS011;18261;53.648;9.910;2023-03-23T04:33:43;21.23;;;14.25;;
31652;SDS011;18261;53.648;9.910;2023-03-23T04:36:09;25.33;;;15.73;;
31652;SDS011;18261;53.648;9.910;2023-03-23T04:38:35;27.30;;;15.13;;
31652;SDS011;18261;53.648;9.910;2023-03-23T04:41:01;25.08;;;14.40;;
31652;SDS011;18261;53.648;9.910;2023-03-23T04:43:27;22.77;;;14.35;;
31652;SDS011;18261;53.648;9.910;2023-03-23T04:45:54;18.55;;;14.35;;
31652;SDS011;18261;53.648;9.910;2023-03-23T04:48:27;20.80;;;14.80;;
31652;SDS011;18261;53.648;9.910;2023-03-23T04:50:53;20.85;;;14.02;;
31652;SDS011;18261;53.648;9.910;2023-03-23T04:53:19;26.88;;;15.13;;
31652;SDS011;18261;53.648;9.910;2023-03-23T04:55:46;26.55;;;14.88;;
31652;SDS011;18261;53.648;9.910;2023-03-23T04:58:13;24.77;;;15.80;;
31652;SDS011;18261;53.648;9.910;2023-03-23T05:00:39;21.48;;;13.77;;
31652;SDS011;18261;53.648;9.910;2023-03-23T05:03:09;30.88;;;18.50;;
31652;SDS011;18261;53.648;9.910;2023-03-23T05:05:35;22.23;;;15.02;;
31652;SDS011;18261;53.648;9.910;2023-03-23T05:08:01;24.30;;;15.13;;
31652;SDS011;18261;53.648;9.910;2023-03-23T05:10:27;21.30;;;15.23;;
31652;SDS011;18261;53.648;9.910;2023-03-23T05:12:53;23.15;;;15.20;;
31652;SDS011;18261;53.648;9.910;2023-03-23T05:15:20;23.75;;;15.35;;
31652;SDS011;18261;53.648;9.910;2023-03-23T05:17:46;24.90;;;15.63;;
31652;SDS011;18261;53.648;9.910;2023-03-23T05:20:14;19.73;;;15.23;;
31652;SDS011;18261;53.648;9.910;2023-03-23T05:22:43;22.08;;;14.70;;
31652;SDS011;18261;53.648;9.910;2023-03-23T05:25:09;22.67;;;15.10;;
31652;SDS011;18261;53.648;9.910;2023-03-23T05:27:36;23.77;;;15.60;;
31652;SDS011;18261;53.648;9.910;2023-03-23T05:30:02;25.35;;;15.40;;
31652;SDS011;18261;53.648;9.910;2023-03-23T05:32:28;28.13;;;16.98;;
31652;SDS011;18261;53.648;9.910;2023-03-23T05:34:56;22.75;;;15.20;;
31652;SDS011;18261;53.648;9.910;2023-03-23T05:37:22;22.90;;;15.15;;
31652;SDS011;18261;53.648;9.910;2023-03-23T05:39:48;24.10;;;14.80;;
31652;SDS011;18261;53.648;9.910;2023-03-23T05:42:18;23.10;;;14.10;;
31652;SDS011;18261;53.648;9.910;2023-03-23T05:44:44;25.17;;;15.20;;
31652;SDS011;18261;53.648;9.910;2023-03-23T05:47:10;21.95;;;15.13;;
31652;SDS011;18261;53.648;9.910;2023-03-23T05:49:36;24.38;;;14.63;;
31652;SDS011;18261;53.648;9.910;2023-03-23T05:52:03;20.30;;;13.93;;
31652;SDS011;18261;53.648;9.910;2023-03-23T05:54:29;21.02;;;13.50;;
31652;SDS011;18261;53.648;9.910;2023-03-23T05:56:55;27.20;;;14.65;;
31652;SDS011;18261;53.648;9.910;2023-03-23T05:59:21;23.95;;;14.18;;
31652;SDS011;18261;53.648;9.910;2023-03-23T06:01:47;25.33;;;12.68;;
31652;SDS011;18261;53.648;9.910;2023-03-23T06:04:13;21.45;;;13.10;;
31652;SDS011;18261;53.648;9.910;2023-03-23T06:06:39;23.58;;;13.82;;
31652;SDS011;18261;53.648;9.910;2023-03-23T06:09:07;26.02;;;13.25;;
31652;SDS011;18261;53.648;9.910;2023-03-23T06:11:33;20.65;;;13.35;;
31652;SDS011;18261;53.648;9.910;2023-03-23T06:13:59;20.88;;;12.50;;
31652;SDS011;18261;53.648;9.910;2023-03-23T06:16:25;23.17;;;13.02;;
31652;SDS011;18261;53.648;9.910;2023-03-23T06:18:51;26.80;;;13.02;;
31652;SDS011;18261;53.648;9.910;2023-03-23T06:21:17;22.27;;;12.75;;
31652;SDS011;18261;53.648;9.910;2023-03-23T06:23:44;17.20;;;11.40;;
31652;SDS011;18261;53.648;9.910;2023-03-23T06:26:10;26.23;;;12.20;;
31652;SDS011;18261;53.648;9.910;2023-03-23T06:28:39;17.55;;;11.68;;
31652;SDS011;18261;53.648;9.910;2023-03-23T06:31:05;19.67;;;11.35;;
31652;SDS011;18261;53.648;9.910;2023-03-23T06:33:33;19.20;;;10.98;;
31652;SDS011;18261;53.648;9.910;2023-03-23T06:35:59;22.80;;;10.93;;
31652;SDS011;18261;53.648;9.910;2023-03-23T06:38:25;18.70;;;10.65;;
31652;SDS011;18261;53.648;9.910;2023-03-23T06:40:54;21.27;;;10.63;;
31652;SDS011;18261;53.648;9.910;2023-03-23T06:43:20;19.75;;;10.00;;
31652;SDS011;18261;53.648;9.910;2023-03-23T06:45:46;19.90;;;10.15;;
31652;SDS011;18261;53.648;9.910;2023-03-23T06:48:12;18.27;;;9.52;;
31652;SDS011;18261;53.648;9.910;2023-03-23T06:50:38;17.58;;;10.20;;
31652;SDS011;18261;53.648;9.910;2023-03-23T06:53:04;18.83;;;9.50;;
31652;SDS011;18261;53.648;9.910;2023-03-23T06:55:30;19.27;;;9.02;;
31652;SDS011;18261;53.648;9.910;2023-03-23T06:57:56;14.50;;;9.25;;
31652;SDS011;18261;53.648;9.910;2023-03-23T07:00:24;19.67;;;8.88;;
31652;SDS011;18261;53.648;9.910;2023-03-23T07:02:50;16.25;;;8.32;;
31652;SDS011;18261;53.648;9.910;2023-03-23T07:05:16;12.50;;;7.63;;
31652;SDS011;18261;53.648;9.910;2023-03-23T07:07:42;14.15;;;8.18;;
31652;SDS011;18261;53.648;9.910;2023-03-23T07:10:09;15.40;;;7.35;;
31652;SDS011;18261;53.648;9.910;2023-03-23T07:12:36;14.70;;;7.95;;
31652;SDS011;18261;53.648;9.910;2023-03-23T07:15:02;13.63;;;7.18;;
31652;SDS011;18261;53.648;9.910;2023-03-23T07:17:29;13.65;;;6.82;;
31652;SDS011;18261;53.648;9.910;2023-03-23T07:19:55;11.52;;;6.82;;
31652;SDS011;18261;53.648;9.910;2023-03-23T07:22:21;12.18;;;6.45;;
31652;SDS011;18261;53.648;9.910;2023-03-23T07:24:47;10.75;;;6.63;;
31652;SDS011;18261;53.648;9.910;2023-03-23T07:27:13;11.27;;;6.07;;
31652;SDS011;18261;53.648;9.910;2023-03-23T07:29:39;16.00;;;7.03;;
31652;SDS011;18261;53.648;9.910;2023-03-23T07:32:05;21.65;;;11.13;;
31652;SDS011;18261;53.648;9.910;2023-03-23T07:34:32;13.57;;;6.45;;
31652;SDS011;18261;53.648;9.910;2023-03-23T07:36:58;13.07;;;6.32;;
31652;SDS011;18261;53.648;9.910;2023-03-23T07:39:25;13.80;;;6.32;;
31652;SDS011;18261;53.648;9.910;2023-03-23T07:41:51;21.38;;;7.05;;
31652;SDS011;18261;53.648;9.910;2023-03-23T07:44:17;13.93;;;6.35;;
31652;SDS011;18261;53.648;9.910;2023-03-23T07:46:43;13.23;;;6.13;;
31652;SDS011;18261;53.648;9.910;2023-03-23T07:49:09;12.98;;;6.30;;
31652;SDS011;18261;53.648;9.910;2023-03-23T07:51:35;13.82;;;6.70;;
31652;SDS011;18261;53.648;9.910;2023-03-23T07:54:03;17.60;;;7.00;;
31652;SDS011;18261;53.648;9.910;2023-03-23T07:56:30;18.15;;;7.57;;
31652;SDS011;18261;53.648;9.910;2023-03-23T07:58:56;10.13;;;4.15;;
31652;SDS011;18261;53.648;9.910;2023-03-23T08:01:22;9.95;;;3.85;;
31652;SDS011;18261;53.648;9.910;2023-03-23T08:03:49;7.10;;;1.80;;
31652;SDS011;18261;53.648;9.910;2023-03-23T08:06:16;4.05;;;1.60;;
31652;SDS011;18261;53.648;9.910;2023-03-23T08:08:42;6.15;;;1.70;;
31652;SDS011;18261;53.648;9.910;2023-03-23T08:11:08;6.70;;;2.20;;
31652;SDS011;18261;53.648;9.910;2023-03-23T08:13:34;7.63;;;2.30;;
31652;SDS011;18261;53.648;9.910;2023-03-23T08:16:00;4.93;;;1.40;;
31652;SDS011;18261;53.648;9.910;2023-03-23T08:18:30;8.25;;;1.60;;
31652;SDS011;18261;53.648;9.910;2023-03-23T08:20:57;4.30;;;1.73;;
31652;SDS011;18261;53.648;9.910;2023-03-23T08:23:23;7.25;;;1.23;;
31652;SDS011;18261;53.648;9.910;2023-03-23T08:25:49;7.22;;;1.50;;
31652;SDS011;18261;53.648;9.910;2023-03-23T08:28:15;9.18;;;1.50;;
31652;SDS011;18261;53.648;9.910;2023-03-23T08:30:41;4.50;;;1.30;;
31652;SDS011;18261;53.648;9.910;2023-03-23T08:33:07;7.82;;;1.70;;
31652;SDS011;18261;53.648;9.910;2023-03-23T08:35:35;7.32;;;1.90;;
31652;SDS011;18261;53.648;9.910;2023-03-23T08:38:01;7.65;;;1.77;;
31652;SDS011;18261;53.648;9.910;2023-03-23T08:40:28;7.93;;;1.83;;
31652;SDS011;18261;53.648;9.910;2023-03-23T08:42:54;7.45;;;2.30;;
31652;SDS011;18261;53.648;9.910;2023-03-23T08:45:22;10.13;;;2.35;;
31652;SDS011;18261;53.648;9.910;2023-03-23T08:47:48;8.40;;;2.85;;
31652;SDS011;18261;53.648;9.910;2023-03-23T08:50:18;17.88;;;2.60;;
31652;SDS011;18261;53.648;9.910;2023-03-23T08:52:46;11.13;;;2.53;;
31652;SDS011;18261;53.648;9.910;2023-03-23T08:55:12;13.43;;;2.90;;
31652;SDS011;18261;53.648;9.910;2023-03-23T08:57:40;10.48;;;2.88;;
31652;SDS011;18261;53.648;9.910;2023-03-23T09:00:08;5.50;;;2.03;;
31652;SDS011;18261;53.648;9.910;2023-03-23T09:02:43;9.27;;;2.40;;
31652;SDS011;18261;53.648;9.910;2023-03-23T09:05:10;9.43;;;2.55;;
31652;SDS011;18261;53.648;9.910;2023-03-23T09:07:39;11.60;;;3.03;;
31652;SDS011;18261;53.648;9.910;2023-03-23T09:10:06;9.40;;;2.55;;
31652;SDS011;18261;53.648;9.910;2023-03-23T09:12:32;11.48;;;3.47;;
31652;SDS011;18261;53.648;9.910;2023-03-23T09:14:58;12.30;;;3.20;;
31652;SDS011;18261;53.648;9.910;2023-03-23T09:17:26;12.43;;;2.80;;
31652;SDS011;18261;53.648;9.910;2023-03-23T09:19:52;10.30;;;2.83;;
31652;SDS011;18261;53.648;9.910;2023-03-23T09:22:18;9.98;;;2.80;;
31652;SDS011;18261;53.648;9.910;2023-03-23T09:24:45;10.52;;;2.90;;
31652;SDS011;18261;53.648;9.910;2023-03-23T09:27:11;11.38;;;3.05;;
31652;SDS011;18261;53.648;9.910;2023-03-23T09:29:37;14.13;;;3.20;;
31652;SDS011;18261;53.648;9.910;2023-03-23T09:32:03;15.98;;;3.30;;
31652;SDS011;18261;53.648;9.910;2023-03-23T09:34:29;22.00;;;4.68;;
31652;SDS011;18261;53.648;9.910;2023-03-23T09:36:55;12.27;;;3.30;;
31652;SDS011;18261;53.648;9.910;2023-03-23T09:39:21;18.27;;;4.00;;
31652;SDS011;18261;53.648;9.910;2023-03-23T09:47:01;57.88;;;10.52;;
31652;SDS011;18261;53.648;9.910;2023-03-23T09:49:33;28.15;;;5.28;;
31652;SDS011;18261;53.648;9.910;2023-03-23T09:52:02;31.13;;;5.80;;
31652;SDS011;18261;53.648;9.910;2023-03-23T09:54:31;20.35;;;3.50;;
31652;SDS011;18261;53.648;9.910;2023-03-23T09:57:01;17.55;;;3.47;;
31652;SDS011;18261;53.648;9.910;2023-03-23T09:59:33;15.82;;;3.10;;
31652;SDS011;18261;53.648;9.910;2023-03-23T10:09:38;18.27;;;3.45;;
31652;SDS011;18261;53.648;9.910;2023-03-23T10:17:13;15.65;;;2.90;;
31652;SDS011;18261;53.648;9.910;2023-03-23T10:22:36;16.40;;;3.00;;
31652;SDS011;18261;53.648;9.910;2023-03-23T10:30:26;17.40;;;3.72;;
31652;SDS011;18261;53.648;9.910;2023-03-23T10:33:03;17.45;;;3.30;;
31652;SDS011;18261;53.648;9.910;2023-03-23T10:35:35;21.42;;;4.60;;
31652;SDS011;18261;53.648;9.910;2023-03-23T10:38:05;17.58;;;4.05;;
31652;SDS011;18261;53.648;9.910;2023-03-23T10:40:32;16.95;;;3.65;;
31652;SDS011;18261;53.648;9.910;2023-03-23T10:43:00;23.50;;;3.75;;
31652;SDS011;18261;53.648;9.910;2023-03-23T10:45:27;23.63;;;3.50;;
31652;SDS011;18261;53.648;9.910;2023-03-23T10:50:39;17.30;;;3.33;;
31652;SDS011;18261;53.648;9.910;2023-03-23T10:53:14;20.60;;;3.75;;
31652;SDS011;18261;53.648;9.910;2023-03-23T10:55:41;19.98;;;4.05;;
31652;SDS011;18261;53.648;9.910;2023-03-23T10:58:10;25.52;;;3.65;;
31652;SDS011;18261;53.648;9.910;2023-03-23T11:00:41;18.40;;;3.60;;
31652;SDS011;18261;53.648;9.910;2023-03-23T11:05:47;20.95;;;3.80;;
31652;SDS011;18261;53.648;9.910;2023-03-23T11:08:15;23.67;;;4.60;;
31652;SDS011;18261;53.648;9.910;2023-03-23T11:10:47;22.20;;;3.92;;
31652;SDS011;18261;53.648;9.910;2023-03-23T11:13:15;25.58;;;6.38;;
31652;SDS011;18261;53.648;9.910;2023-03-23T11:15:42;20.77;;;4.57;;
31652;SDS011;18261;53.648;9.910;2023-03-23T11:18:21;24.45;;;4.05;;
31652;SDS011;18261;53.648;9.910;2023-03-23T11:20:49;22.08;;;4.47;;
31652;SDS011;18261;53.648;9.910;2023-03-23T11:23:20;28.63;;;4.78;;
31652;SDS011;18261;53.648;9.910;2023-03-23T11:25:51;33.15;;;4.70;;
31652;SDS011;18261;53.648;9.910;2023-03-23T11:28:18;28.08;;;4.53;;
31652;SDS011;18261;53.648;9.910;2023-03-23T11:30:44;30.35;;;6.20;;
31652;SDS011;18261;53.648;9.910;2023-03-23T11:33:11;26.05;;;5.15;;
31652;SDS011;18261;53.648;9.910;2023-03-23T11:35:42;33.10;;;5.43;;
31652;SDS011;18261;53.648;9.910;2023-03-23T11:38:17;28.50;;;4.63;;
31652;SDS011;18261;53.648;9.910;2023-03-23T11:40:48;31.17;;;5.68;;
31652;SDS011;18261;53.648;9.910;2023-03-23T11:43:17;30.25;;;4.97;;
31652;SDS011;18261;53.648;9.910;2023-03-23T11:45:53;28.52;;;4.55;;
31652;SDS011;18261;53.648;9.910;2023-03-23T11:50:49;29.08;;;4.50;;
31652;SDS011;18261;53.648;9.910;2023-03-23T11:53:33;29.50;;;4.75;;
31652;SDS011;18261;53.648;9.910;2023-03-23T11:56:10;34.47;;;5.45;;
31652;SDS011;18261;53.648;9.910;2023-03-23T11:58:36;33.08;;;5.03;;
31652;SDS011;18261;53.648;9.910;2023-03-23T12:01:12;29.58;;;4.80;;
31652;SDS011;18261;53.648;9.910;2023-03-23T12:11:40;36.65;;;5.13;;
31652;SDS011;18261;53.648;9.910;2023-03-23T12:14:20;26.58;;;4.65;;
31652;SDS011;18261;53.648;9.910;2023-03-23T12:21:51;24.65;;;4.63;;
31652;SDS011;18261;53.648;9.910;2023-03-23T12:24:21;23.70;;;3.93;;
31652;SDS011;18261;53.648;9.910;2023-03-23T12:34:30;23.92;;;4.65;;
31652;SDS011;18261;53.648;9.910;2023-03-23T12:39:48;27.95;;;5.00;;
31652;SDS011;18261;53.648;9.910;2023-03-23T12:42:22;27.20;;;4.25;;
31652;SDS011;18261;53.648;9.910;2023-03-23T12:47:31;19.33;;;3.88;;
31652;SDS011;18261;53.648;9.910;2023-03-23T12:50:03;25.60;;;3.80;;
31652;SDS011;18261;53.648;9.910;2023-03-23T12:52:42;27.38;;;4.32;;
31652;SDS011;18261;53.648;9.910;2023-03-23T12:55:15;15.10;;;4.03;;
31652;SDS011;18261;53.648;9.910;2023-03-23T12:57:45;21.45;;;4.30;;
31652;SDS011;18261;53.648;9.910;2023-03-23T13:00:18;19.17;;;4.10;;
31652;SDS011;18261;53.648;9.910;2023-03-23T13:02:51;20.80;;;4.10;;
31652;SDS011;18261;53.648;9.910;2023-03-23T13:07:53;26.08;;;4.75;;
31652;SDS011;18261;53.648;9.910;2023-03-23T13:10:28;21.33;;;4.13;;
31652;SDS011;18261;53.648;9.910;2023-03-23T13:12:55;20.92;;;3.85;;
31652;SDS011;18261;53.648;9.910;2023-03-23T13:23:24;19.83;;;4.28;;
31652;SDS011;18261;53.648;9.910;2023-03-23T13:25:53;20.75;;;4.18;;
31652;SDS011;18261;53.648;9.910;2023-03-23T13:28:22;28.33;;;4.78;;
31652;SDS011;18261;53.648;9.910;2023-03-23T13:33:20;20.45;;;4.07;;
31652;SDS011;18261;53.648;9.910;2023-03-23T13:35:46;21.83;;;4.63;;
31652;SDS011;18261;53.648;9.910;2023-03-23T13:38:21;19.17;;;3.75;;
31652;SDS011;18261;53.648;9.910;2023-03-23T13:40:49;20.27;;;3.42;;
31652;SDS011;18261;53.648;9.910;2023-03-23T13:43:24;25.98;;;4.30;;
31652;SDS011;18261;53.648;9.910;2023-03-23T13:45:52;23.40;;;5.30;;
31652;SDS011;18261;53.648;9.910;2023-03-23T13:48:21;16.23;;;3.95;;
31652;SDS011;18261;53.648;9.910;2023-03-23T13:50:55;13.18;;;3.53;;
31652;SDS011;18261;53.648;9.910;2023-03-23T13:53:42;18.63;;;3.20;;
31652;SDS011;18261;53.648;9.910;2023-03-23T13:56:54;6.80;;;1.70;;
31652;SDS011;18261;53.648;9.910;2023-03-23T13:59:12;14.93;;;2.47;;
31652;SDS011;18261;53.648;9.910;2023-03-23T14:01:39;9.03;;;3.00;;
31652;SDS011;18261;53.648;9.910;2023-03-23T14:04:09;5.68;;;1.42;;
31652;SDS011;18261;53.648;9.910;2023-03-23T14:06:36;8.95;;;1.48;;
31652;SDS011;18261;53.648;9.910;2023-03-23T14:09:06;9.55;;;2.30;;
31652;SDS011;18261;53.648;9.910;2023-03-23T14:11:34;7.13;;;2.28;;
31652;SDS011;18261;53.648;9.910;2023-03-23T14:14:55;20.35;;;6.55;;
31652;SDS011;18261;53.648;9.910;2023-03-23T14:17:08;9.27;;;2.33;;
31652;SDS011;18261;53.648;9.910;2023-03-23T14:19:37;13.50;;;2.92;;
31652;SDS011;18261;53.648;9.910;2023-03-23T14:22:03;10.98;;;2.40;;
31652;SDS011;18261;53.648;9.910;2023-03-23T14:24:30;8.98;;;2.65;;
31652;SDS011;18261;53.648;9.910;2023-03-23T14:27:30;10.30;;;2.92;;
31652;SDS011;18261;53.648;9.910;2023-03-23T14:29:58;8.48;;;1.98;;
31652;SDS011;18261;53.648;9.910;2023-03-23T14:32:24;14.35;;;2.45;;
31652;SDS011;18261;53.648;9.910;2023-03-23T14:34:52;9.77;;;2.78;;
31652;SDS011;18261;53.648;9.910;2023-03-23T14:37:19;14.68;;;5.45;;
31652;SDS011;18261;53.648;9.910;2023-03-23T14:39:51;23.55;;;8.55;;
31652;SDS011;18261;53.648;9.910;2023-03-23T14:42:19;10.55;;;2.83;;
31652;SDS011;18261;53.648;9.910;2023-03-23T14:44:47;9.63;;;2.00;;
31652;SDS011;18261;53.648;9.910;2023-03-23T14:49:46;8.70;;;2.10;;
31652;SDS011;18261;53.648;9.910;2023-03-23T14:52:14;11.02;;;2.38;;
31652;SDS011;18261;53.648;9.910;2023-03-23T14:54:40;6.88;;;1.88;;
31652;SDS011;18261;53.648;9.910;2023-03-23T14:57:14;9.45;;;2.28;;
31652;SDS011;18261;53.648;9.910;2023-03-23T14:59:44;9.93;;;2.20;;
31652;SDS011;18261;53.648;9.910;2023-03-23T15:02:12;8.15;;;1.95;;
31652;SDS011;18261;53.648;9.910;2023-03-23T15:04:39;9.60;;;2.15;;
31652;SDS011;18261;53.648;9.910;2023-03-23T15:07:06;7.93;;;1.98;;
31652;SDS011;18261;53.648;9.910;2023-03-23T15:09:32;9.63;;;2.88;;
31652;SDS011;18261;53.648;9.910;2023-03-23T15:12:00;10.57;;;2.22;;
31652;SDS011;18261;53.648;9.910;2023-03-23T15:14:30;9.95;;;2.22;;
31652;SDS011;18261;53.648;9.910;2023-03-23T15:16:58;12.82;;;3.00;;
31652;SDS011;18261;53.648;9.910;2023-03-23T15:19:26;9.23;;;2.50;;
31652;SDS011;18261;53.648;9.910;2023-03-23T15:21:56;8.70;;;1.95;;
31652;SDS011;18261;53.648;9.910;2023-03-23T15:26:51;14.43;;;2.72;;
31652;SDS011;18261;53.648;9.910;2023-03-23T15:29:21;11.50;;;2.45;;
31652;SDS011;18261;53.648;9.910;2023-03-23T15:31:55;12.38;;;3.03;;
31652;SDS011;18261;53.648;9.910;2023-03-23T15:34:31;19.55;;;2.92;;
31652;SDS011;18261;53.648;9.910;2023-03-23T15:36:59;12.55;;;3.42;;
31652;SDS011;18261;53.648;9.910;2023-03-23T15:39:26;16.90;;;4.75;;
31652;SDS011;18261;53.648;9.910;2023-03-23T15:41:52;15.70;;;3.38;;
31652;SDS011;18261;53.648;9.910;2023-03-23T15:44:23;13.45;;;3.22;;
31652;SDS011;18261;53.648;9.910;2023-03-23T15:46:50;10.77;;;2.70;;
31652;SDS011;18261;53.648;9.910;2023-03-23T15:49:17;11.88;;;3.40;;
31652;SDS011;18261;53.648;9.910;2023-03-23T15:51:43;10.45;;;2.95;;
31652;SDS011;18261;53.648;9.910;2023-03-23T15:54:12;16.90;;;4.13;;
31652;SDS011;18261;53.648;9.910;2023-03-23T15:56:38;16.02;;;2.97;;
31652;SDS011;18261;53.648;9.910;2023-03-23T15:59:04;16.05;;;3.65;;
31652;SDS011;18261;53.648;9.910;2023-03-23T16:01:30;11.73;;;3.28;;
31652;SDS011;18261;53.648;9.910;2023-03-23T16:04:00;19.00;;;3.92;;
31652;SDS011;18261;53.648;9.910;2023-03-23T16:06:28;12.68;;;4.65;;
31652;SDS011;18261;53.648;9.910;2023-03-23T16:08:55;35.03;;;15.88;;